Time;durP1;ratioP1;P1;durP2;ratioP2;P2;SDS_P1;SDS_P2;PMS_P1;PMS_P2;Temp;Humidity;BMP_temperature;BMP_pressure;BME280_temperature;BME280_humidity;BME280_pressure;Samples;Min_cycle;Max_cycle;Signal;HPM_P1;HPM_P2
2024/04/07 00:01:49;;;;;;;11.57;1.58;;;9.40;99.90;;;;;;4950058;29;20023;-94
2024/04/07 00:04:18;;;;;;;9.48;1.50;;;9.40;99.90;;;;;;4950187;28;20034;-95
2024/04/07 00:06:43;;;;;;;10.35;2.15;;;9.40;99.90;;;;;;4951337;29;20497;-94
2024/04/07 00:09:10;;;;;;;11.07;1.67;;;9.40;99.90;;;;;;4950825;29;20035;-95
2024/04/07 00:11:36;;;;;;;17.17;1.92;;;9.40;99.90;;;;;;4953624;29;20083;-94
2024/04/07 00:14:02;;;;;;;7.20;1.52;;;9.50;99.90;;;;;;4965414;28;20011;-93
2024/04/07 00:16:28;;;;;;;11.05;1.58;;;9.50;99.90;;;;;;4964724;29;20180;-94
2024/04/07 00:18:54;;;;;;;6.38;1.20;;;9.50;99.90;;;;;;4963721;29;20088;-93
2024/04/07 00:21:20;;;;;;;10.25;2.22;;;9.50;99.90;;;;;;4954915;29;20050;-94
2024/04/07 00:23:46;;;;;;;10.45;2.08;;;9.40;99.90;;;;;;4949639;29;20027;-94
2024/04/07 00:26:12;;;;;;;11.10;1.63;;;9.40;99.90;;;;;;4949131;29;20031;-95
2024/04/07 00:28:37;;;;;;;10.63;1.65;;;9.40;99.90;;;;;;4946034;29;20040;-94
2024/04/07 00:31:04;;;;;;;6.60;1.17;;;9.50;99.90;;;;;;4948454;29;20027;-93
2024/04/07 00:33:30;;;;;;;7.07;1.38;;;9.40;99.90;;;;;;4948548;29;20122;-95
2024/04/07 00:35:58;;;;;;;10.07;1.55;;;9.40;99.90;;;;;;4948695;29;20448;-94
2024/04/07 00:38:25;;;;;;;6.78;1.02;;;9.40;99.90;;;;;;4948439;29;20039;-93
2024/04/07 00:40:53;;;;;;;6.65;1.20;;;9.40;99.90;;;;;;4948073;29;20051;-94
2024/04/07 00:43:19;;;;;;;8.02;1.30;;;9.40;99.90;;;;;;4947526;29;20039;-96
2024/04/07 00:45:45;;;;;;;6.03;1.23;;;9.50;99.90;;;;;;4932433;29;20059;-94
2024/04/07 00:48:11;;;;;;;3.28;1.00;;;9.50;99.90;;;;;;4929108;29;20044;-95
2024/04/07 00:50:37;;;;;;;5.80;0.98;;;9.50;99.90;;;;;;4928858;29;20035;-94
2024/04/07 00:53:04;;;;;;;4.57;0.93;;;9.50;99.90;;;;;;4929677;29;20028;-95
2024/04/07 00:55:30;;;;;;;1.70;0.57;;;9.50;99.90;;;;;;4933212;29;20046;-96
2024/04/07 00:57:56;;;;;;;6.45;0.90;;;9.50;99.90;;;;;;4933754;29;20035;-96
2024/04/07 01:00:22;;;;;;;5.53;0.80;;;9.40;99.90;;;;;;4938324;29;20051;-95
2024/04/07 01:02:48;;;;;;;5.35;1.10;;;9.40;99.90;;;;;;4933861;29;20027;-95
2024/04/07 01:05:14;;;;;;;2.30;0.73;;;9.30;99.90;;;;;;4930735;29;20047;-95
2024/04/07 01:07:40;;;;;;;3.70;0.60;;;9.30;99.90;;;;;;4941540;29;20042;-95
2024/04/07 01:10:08;;;;;;;6.88;0.80;;;9.20;99.90;;;;;;4941364;29;20036;-96
2024/04/07 01:12:34;;;;;;;1.55;0.47;;;9.10;99.90;;;;;;4941975;29;20485;-94
2024/04/07 01:15:00;;;;;;;4.28;0.68;;;9.00;99.90;;;;;;4931850;29;20031;-95
2024/04/07 01:17:26;;;;;;;6.28;1.20;;;8.90;99.90;;;;;;4944056;29;20035;-96
2024/04/07 01:19:54;;;;;;;5.57;0.90;;;8.90;99.90;;;;;;4937289;29;20015;-95
2024/04/07 01:22:20;;;;;;;0.95;0.50;;;8.90;99.90;;;;;;4943558;29;20584;-96
2024/04/07 01:24:46;;;;;;;2.47;0.70;;;8.80;99.90;;;;;;4938020;29;20028;-96
2024/04/07 01:27:11;;;;;;;6.22;0.95;;;8.90;99.90;;;;;;4931692;29;20553;-94
2024/04/07 01:29:37;;;;;;;8.23;0.98;;;8.90;99.90;;;;;;4931383;29;20148;-94
2024/04/07 01:32:04;;;;;;;5.97;0.93;;;8.80;99.90;;;;;;4936333;29;20020;-95
2024/04/07 01:34:30;;;;;;;8.10;0.73;;;8.80;99.90;;;;;;4944006;29;20082;-95
2024/04/07 01:36:55;;;;;;;5.70;0.80;;;8.80;99.90;;;;;;4944874;29;20032;-96
2024/04/07 01:39:21;;;;;;;2.67;0.52;;;8.80;99.90;;;;;;4961403;29;20015;-95
2024/04/07 01:41:47;;;;;;;6.65;1.10;;;8.70;99.90;;;;;;4944036;29;20031;-92
2024/04/07 01:44:13;;;;;;;6.35;0.82;;;8.80;99.90;;;;;;4945035;29;20031;-93
2024/04/07 01:46:38;;;;;;;4.80;0.65;;;8.70;99.90;;;;;;4944768;29;20031;-93
2024/04/07 01:49:04;;;;;;;9.00;1.02;;;8.70;99.90;;;;;;4944354;29;20063;-94
2024/04/07 01:51:30;;;;;;;7.70;1.17;;;8.70;99.90;;;;;;4944658;29;20086;-93
2024/04/07 01:53:56;;;;;;;8.57;1.15;;;8.60;99.90;;;;;;4944987;29;20035;-94
2024/04/07 01:56:21;;;;;;;5.80;1.20;;;8.60;99.90;;;;;;4944418;29;20016;-95
2024/04/07 01:58:47;;;;;;;2.85;0.90;;;8.60;99.90;;;;;;4943830;29;20031;-93
2024/04/07 02:01:13;;;;;;;10.23;1.35;;;8.60;99.90;;;;;;4944803;29;20047;-94
2024/04/07 02:03:38;;;;;;;7.25;1.00;;;8.60;99.90;;;;;;4941635;29;20079;-94
2024/04/07 02:06:05;;;;;;;5.55;0.80;;;8.60;99.90;;;;;;4923909;29;20151;-95
2024/04/07 02:08:30;;;;;;;5.85;0.98;;;8.60;99.90;;;;;;4928264;29;20039;-95
2024/04/07 02:10:56;;;;;;;12.23;2.20;;;8.50;99.90;;;;;;4931445;29;20042;-93
2024/04/07 02:13:22;;;;;;;3.75;0.65;;;8.60;99.90;;;;;;4930058;29;20027;-94
2024/04/07 02:15:49;;;;;;;8.02;1.88;;;8.50;99.90;;;;;;4930090;29;20028;-95
2024/04/07 02:18:15;;;;;;;9.82;1.70;;;8.60;99.90;;;;;;4929454;29;20046;-95
2024/04/07 02:20:49;;;;;;;5.45;1.15;;;8.60;99.90;;;;;;4929426;29;20034;-93
2024/04/07 02:23:16;;;;;;;8.35;1.17;;;8.60;99.90;;;;;;4934841;29;20145;-94
2024/04/07 02:25:41;;;;;;;5.63;1.33;;;8.60;99.90;;;;;;4931526;29;20032;-94
2024/04/07 02:28:07;;;;;;;9.73;1.30;;;8.60;99.90;;;;;;4939031;29;20043;-93
2024/04/07 02:30:35;;;;;;;11.88;2.10;;;8.60;99.90;;;;;;4938537;29;20027;-94
2024/04/07 02:33:04;;;;;;;11.05;2.65;;;8.60;99.90;;;;;;4939899;29;20023;-95
2024/04/07 02:35:32;;;;;;;10.35;1.25;;;8.60;99.90;;;;;;4939782;29;20055;-94
2024/04/07 02:37:58;;;;;;;9.43;1.45;;;8.70;99.90;;;;;;4938744;29;20031;-95
2024/04/07 02:40:24;;;;;;;11.90;1.80;;;8.60;99.90;;;;;;4938754;29;20038;-95
2024/04/07 02:42:52;;;;;;;14.85;1.65;;;8.60;99.90;;;;;;4936789;29;20083;-94
2024/04/07 02:48:06;;;;;;;13.90;1.95;;;8.70;99.90;;;;;;4954900;29;20061;-95
2024/04/07 02:50:33;;;;;;;12.05;1.83;;;8.70;99.90;;;;;;4932702;29;20023;-95
2024/04/07 02:52:59;;;;;;;14.93;2.05;;;8.70;99.90;;;;;;4930177;29;20036;-95
2024/04/07 02:55:25;;;;;;;9.25;1.73;;;8.60;99.90;;;;;;4929250;29;20062;-94
2024/04/07 02:57:51;;;;;;;13.75;1.75;;;8.60;99.90;;;;;;4928143;29;20098;-94
2024/04/07 03:00:17;;;;;;;17.35;1.83;;;8.60;99.90;;;;;;4926935;29;20028;-94
2024/04/07 03:02:46;;;;;;;15.68;3.13;;;8.50;99.90;;;;;;4928113;29;20040;-94
2024/04/07 03:05:16;;;;;;;10.93;1.70;;;8.50;99.90;;;;;;4928944;29;20051;-96
2024/04/07 03:07:42;;;;;;;13.90;3.70;;;8.40;99.90;;;;;;4928889;29;20036;-95
2024/04/07 03:10:08;;;;;;;15.27;1.95;;;8.40;99.90;;;;;;4928134;29;20083;-94
2024/04/07 03:12:34;;;;;;;12.45;1.75;;;8.40;99.90;;;;;;4928180;29;20027;-95
2024/04/07 03:15:02;;;;;;;13.23;1.42;;;8.30;99.90;;;;;;4926517;29;20114;-94
2024/04/07 03:17:28;;;;;;;12.10;1.48;;;8.30;99.90;;;;;;4926872;29;20031;-95
2024/04/07 03:19:54;;;;;;;5.03;0.85;;;8.30;99.90;;;;;;4932887;29;20044;-95
2024/04/07 03:22:20;;;;;;;12.80;2.60;;;8.20;99.90;;;;;;4931580;29;20027;-94
2024/04/07 03:24:45;;;;;;;12.68;1.50;;;8.30;99.90;;;;;;4931059;29;20480;-93
2024/04/07 03:27:11;;;;;;;19.92;2.55;;;8.30;99.90;;;;;;4930742;29;20032;-94
2024/04/07 03:29:37;;;;;;;17.00;2.45;;;8.20;99.90;;;;;;4930565;29;20039;-94
2024/04/07 03:32:06;;;;;;;18.48;2.58;;;8.20;99.90;;;;;;4930735;29;20024;-95
2024/04/07 03:34:32;;;;;;;16.52;1.92;;;8.20;99.90;;;;;;4934624;29;20032;-92
2024/04/07 03:36:58;;;;;;;9.32;1.38;;;8.10;99.90;;;;;;4936299;29;20028;-95
2024/04/07 03:39:24;;;;;;;10.70;1.48;;;8.10;99.90;;;;;;4933375;29;20231;-95
2024/04/07 03:41:49;;;;;;;12.98;1.80;;;8.10;99.90;;;;;;4931147;29;20027;-95
2024/04/07 03:44:15;;;;;;;18.50;2.08;;;8.10;99.90;;;;;;4931359;29;20035;-94
2024/04/07 03:46:41;;;;;;;11.63;1.75;;;8.10;99.90;;;;;;4931409;29;20054;-92
2024/04/07 03:49:08;;;;;;;11.63;2.25;;;8.10;99.90;;;;;;4930162;29;20044;-93
2024/04/07 03:51:33;;;;;;;16.00;1.77;;;8.00;99.90;;;;;;4930084;29;20493;-93
2024/04/07 03:53:59;;;;;;;11.45;1.92;;;8.00;99.90;;;;;;4930578;29;20048;-95
2024/04/07 03:56:25;;;;;;;15.43;3.60;;;8.00;99.90;;;;;;4933423;29;20024;-95
2024/04/07 03:58:51;;;;;;;14.65;1.75;;;7.90;99.90;;;;;;4930448;29;20040;-94
2024/04/07 04:01:17;;;;;;;8.85;1.65;;;7.80;99.90;;;;;;4930052;29;20032;-93
2024/04/07 04:03:42;;;;;;;8.48;1.10;;;7.90;99.90;;;;;;4929870;29;20034;-93
2024/04/07 04:06:08;;;;;;;10.98;1.83;;;7.80;99.90;;;;;;4929968;29;20051;-92
2024/04/07 04:08:34;;;;;;;11.73;1.80;;;7.80;99.90;;;;;;4931452;29;20036;-93
2024/04/07 04:11:04;;;;;;;13.98;1.77;;;7.80;99.90;;;;;;4932146;29;20530;-93
2024/04/07 04:13:31;;;;;;;25.02;2.00;;;7.80;99.90;;;;;;4934776;29;20112;-92
2024/04/07 04:15:59;;;;;;;11.23;1.38;;;7.80;99.90;;;;;;4946315;29;20020;-92
2024/04/07 04:18:25;;;;;;;10.45;1.77;;;7.80;99.90;;;;;;4945527;29;20024;-93
2024/04/07 04:20:51;;;;;;;13.07;2.08;;;7.80;99.90;;;;;;4932604;29;20126;-94
2024/04/07 04:23:17;;;;;;;17.35;3.08;;;7.80;99.90;;;;;;4931701;29;20023;-93
2024/04/07 04:25:56;;;;;;;13.43;2.28;;;7.80;99.90;;;;;;4930162;29;20027;-93
2024/04/07 04:28:22;;;;;;;9.27;2.08;;;7.80;99.90;;;;;;4930458;29;20068;-93
2024/04/07 04:30:58;;;;;;;23.55;2.13;;;7.80;99.90;;;;;;4928850;29;20030;-93
2024/04/07 04:33:25;;;;;;;12.90;1.92;;;7.80;99.90;;;;;;4929750;29;20044;-94
2024/04/07 04:35:51;;;;;;;18.02;2.95;;;7.80;99.90;;;;;;4930118;29;20024;-93
2024/04/07 04:38:17;;;;;;;16.77;2.03;;;7.80;99.90;;;;;;4928892;29;20032;-93
2024/04/07 04:40:52;;;;;;;18.10;2.47;;;7.80;99.90;;;;;;4929573;29;20024;-94
2024/04/07 04:43:19;;;;;;;17.65;1.90;;;7.70;99.90;;;;;;4928923;29;20031;-94
2024/04/07 04:45:58;;;;;;;21.05;2.83;;;7.70;99.90;;;;;;4929116;29;20031;-93
2024/04/07 04:48:24;;;;;;;16.80;3.38;;;7.80;99.90;;;;;;4946146;29;20047;-95
2024/04/07 04:50:56;;;;;;;20.08;2.22;;;7.70;99.90;;;;;;4929643;29;20032;-94
2024/04/07 04:53:22;;;;;;;18.95;2.22;;;7.70;99.90;;;;;;4929129;29;20036;-93
2024/04/07 04:55:47;;;;;;;12.38;1.50;;;7.70;99.90;;;;;;4928653;29;20091;-95
2024/04/07 04:58:13;;;;;;;17.17;2.65;;;7.70;99.90;;;;;;4928957;29;20027;-96
2024/04/07 05:00:39;;;;;;;15.45;2.55;;;7.70;99.90;;;;;;4929995;29;20027;-95
2024/04/07 05:03:05;;;;;;;21.88;2.00;;;7.70;99.90;;;;;;4946410;29;20039;-93
2024/04/07 05:05:30;;;;;;;19.92;2.47;;;7.70;99.90;;;;;;4928166;29;20057;-92
2024/04/07 05:07:57;;;;;;;20.38;2.63;;;7.70;99.90;;;;;;4934526;29;20037;-94
2024/04/07 05:10:23;;;;;;;16.40;2.72;;;7.70;99.90;;;;;;4948466;29;20030;-93
2024/04/07 05:12:48;;;;;;;10.80;2.05;;;7.80;99.90;;;;;;4948183;29;20034;-94
2024/04/07 05:15:14;;;;;;;17.23;2.58;;;7.80;99.90;;;;;;4948710;29;20049;-94
2024/04/07 05:17:41;;;;;;;19.90;2.75;;;7.80;99.90;;;;;;4955533;29;20054;-92
2024/04/07 05:20:07;;;;;;;19.88;2.58;;;7.80;99.90;;;;;;4957986;29;20035;-94
2024/04/07 05:22:33;;;;;;;22.08;1.88;;;7.80;99.90;;;;;;4956953;29;20082;-93
2024/04/07 05:24:59;;;;;;;19.45;2.33;;;7.80;99.90;;;;;;4956414;28;20031;-93
2024/04/07 05:27:25;;;;;;;30.70;3.08;;;7.80;99.90;;;;;;4955275;29;20641;-93
2024/04/07 05:29:53;;;;;;;24.63;2.30;;;7.80;99.90;;;;;;4953826;29;20055;-92
2024/04/07 05:32:18;;;;;;;28.45;2.75;;;7.90;99.90;;;;;;4951840;29;20024;-93
2024/04/07 05:34:48;;;;;;;19.73;3.00;;;7.90;99.90;;;;;;4953848;29;20032;-93
2024/04/07 05:37:14;;;;;;;23.45;2.60;;;7.90;99.90;;;;;;4939113;29;20027;-93
2024/04/07 05:39:50;;;;;;;18.67;2.45;;;8.00;99.90;;;;;;4948724;29;20035;-95
2024/04/07 05:42:19;;;;;;;13.23;2.55;;;8.00;99.90;;;;;;4947913;29;20110;-95
2024/04/07 05:44:45;;;;;;;15.23;2.80;;;8.00;99.90;;;;;;4949328;29;20157;-95
2024/04/07 05:47:11;;;;;;;19.50;3.67;;;8.00;99.90;;;;;;4949730;29;20065;-93
2024/04/07 05:49:41;;;;;;;16.27;2.90;;;8.10;99.90;;;;;;4947514;29;20516;-95
2024/04/07 05:52:07;;;;;;;17.27;2.22;;;8.10;99.90;;;;;;4949618;29;20023;-93
2024/04/07 05:54:33;;;;;;;29.05;3.22;;;8.20;99.90;;;;;;4948336;29;20054;-94
2024/04/07 05:56:59;;;;;;;23.40;2.38;;;8.20;99.90;;;;;;4947990;29;20043;-94
2024/04/07 05:59:25;;;;;;;20.98;2.38;;;8.20;99.90;;;;;;4932344;29;20043;-94
2024/04/07 06:01:51;;;;;;;20.17;2.28;;;8.30;99.90;;;;;;4947156;29;20037;-93
2024/04/07 06:04:17;;;;;;;21.92;3.92;;;8.30;99.90;;;;;;4948007;28;20023;-93
2024/04/07 06:06:44;;;;;;;32.60;2.83;;;8.40;99.90;;;;;;4949219;29;20485;-93
2024/04/07 06:09:09;;;;;;;13.60;2.28;;;8.40;99.90;;;;;;4950771;29;20576;-94
2024/04/07 06:11:36;;;;;;;18.63;3.55;;;8.50;99.90;;;;;;4947566;29;20063;-93
2024/04/07 06:14:03;;;;;;;13.80;2.67;;;8.50;99.90;;;;;;4945277;29;20186;-94
2024/04/07 06:16:28;;;;;;;7.75;1.45;;;8.50;99.90;;;;;;4946486;29;20031;-95
2024/04/07 06:18:54;;;;;;;18.23;2.45;;;8.60;99.90;;;;;;4946596;29;20441;-94
2024/04/07 06:21:23;;;;;;;20.88;2.05;;;8.60;99.90;;;;;;4946137;29;20156;-94
2024/04/07 06:23:49;;;;;;;18.42;2.72;;;8.60;99.90;;;;;;4946944;29;20054;-94
2024/04/07 06:26:16;;;;;;;21.75;2.47;;;8.70;99.90;;;;;;4948560;29;20043;-96
2024/04/07 06:28:43;;;;;;;16.30;2.95;;;8.70;99.90;;;;;;4952472;29;20041;-95
2024/04/07 06:31:09;;;;;;;18.17;2.35;;;8.70;99.90;;;;;;4963586;29;20030;-93
2024/04/07 06:33:36;;;;;;;21.27;3.72;;;8.80;99.90;;;;;;4941701;29;20031;-94
2024/04/07 06:36:02;;;;;;;11.75;2.38;;;8.70;99.90;;;;;;4943635;29;20515;-94
2024/04/07 06:38:28;;;;;;;14.18;3.47;;;8.80;99.90;;;;;;4942723;29;20031;-93
2024/04/07 06:40:54;;;;;;;24.85;4.07;;;8.80;99.90;;;;;;4943755;29;20047;-93
2024/04/07 06:43:22;;;;;;;8.95;1.75;;;8.80;99.90;;;;;;4941603;29;20035;-95
2024/04/07 06:45:47;;;;;;;15.57;1.80;;;8.80;99.90;;;;;;4943211;29;20119;-94
2024/04/07 06:48:13;;;;;;;12.23;1.95;;;8.90;99.90;;;;;;4944457;29;20058;-93
2024/04/07 06:50:39;;;;;;;19.63;3.10;;;9.00;99.90;;;;;;4937314;29;20482;-93
2024/04/07 06:53:05;;;;;;;10.85;1.92;;;9.00;99.90;;;;;;4929726;29;20031;-93
2024/04/07 06:55:31;;;;;;;7.88;1.40;;;9.10;99.90;;;;;;4937915;29;20023;-95
2024/04/07 06:57:56;;;;;;;13.82;2.45;;;9.10;99.90;;;;;;4939216;29;20043;-93
2024/04/07 07:00:22;;;;;;;18.20;2.78;;;9.10;99.90;;;;;;4946253;29;20027;-94
2024/04/07 07:02:48;;;;;;;15.00;1.65;;;9.10;99.90;;;;;;4952089;28;20022;-95
2024/04/07 07:05:13;;;;;;;22.13;2.33;;;9.00;99.90;;;;;;4939126;28;20060;-95
2024/04/07 07:07:39;;;;;;;13.20;1.90;;;8.90;99.90;;;;;;4929913;28;20035;-96
2024/04/07 07:10:06;;;;;;;13.50;2.35;;;8.90;99.90;;;;;;4920955;29;20083;-94
2024/04/07 07:12:32;;;;;;;12.77;2.08;;;8.90;99.90;;;;;;4933124;29;20028;-94
2024/04/07 07:14:57;;;;;;;13.73;2.38;;;8.80;99.90;;;;;;4913008;29;20031;-95
2024/04/07 07:17:23;;;;;;;16.73;1.55;;;8.70;99.90;;;;;;4912248;29;20025;-95
2024/04/07 07:19:49;;;;;;;22.98;2.88;;;8.70;99.90;;;;;;4909790;29;20042;-94
2024/04/07 07:22:15;;;;;;;16.45;2.20;;;8.70;99.90;;;;;;4916950;29;20592;-95
2024/04/07 07:24:40;;;;;;;16.67;2.53;;;8.70;99.90;;;;;;4914940;29;20485;-95
2024/04/07 07:27:06;;;;;;;20.13;2.22;;;8.70;99.90;;;;;;4909289;29;20020;-94
2024/04/07 07:29:32;;;;;;;19.52;2.33;;;8.70;99.90;;;;;;4939094;29;20040;-94
2024/04/07 07:31:58;;;;;;;18.48;2.20;;;8.70;99.90;;;;;;4919579;29;20031;-95
2024/04/07 07:34:24;;;;;;;11.48;1.55;;;8.80;99.90;;;;;;4910941;29;20031;-93
2024/04/07 07:36:50;;;;;;;11.82;2.90;;;8.90;99.90;;;;;;4910622;29;20107;-94
2024/04/07 07:39:16;;;;;;;17.80;3.05;;;8.90;99.90;;;;;;4908026;29;20060;-94
2024/04/07 07:41:42;;;;;;;16.80;2.03;;;9.00;99.90;;;;;;4913697;29;20035;-93
2024/04/07 07:44:08;;;;;;;16.73;2.13;;;9.00;99.90;;;;;;4911907;29;20029;-95
2024/04/07 07:46:34;;;;;;;18.25;2.35;;;9.10;99.90;;;;;;4913120;29;20047;-95
2024/04/07 07:48:59;;;;;;;10.68;1.48;;;9.10;99.90;;;;;;4913585;29;20401;-95
2024/04/07 07:51:25;;;;;;;10.13;1.80;;;9.20;99.90;;;;;;4912200;29;20063;-95
2024/04/07 07:53:51;;;;;;;14.32;2.25;;;9.30;99.90;;;;;;4914894;29;20047;-96
2024/04/07 07:56:18;;;;;;;10.77;1.63;;;9.30;99.90;;;;;;4910924;29;20559;-92
2024/04/07 07:58:44;;;;;;;13.52;1.67;;;9.40;99.90;;;;;;4914041;29;20498;-95
2024/04/07 08:01:10;;;;;;;8.68;1.50;;;9.50;99.90;;;;;;4915695;29;20028;-92
2024/04/07 08:03:36;;;;;;;11.18;1.67;;;9.50;99.90;;;;;;4920286;29;20068;-93
2024/04/07 08:06:03;;;;;;;5.70;1.25;;;9.60;99.90;;;;;;4944574;29;20058;-94
2024/04/07 08:08:30;;;;;;;11.48;1.50;;;9.60;99.90;;;;;;4951705;29;20051;-94
2024/04/07 08:10:58;;;;;;;11.32;1.80;;;9.60;99.90;;;;;;4954774;29;20024;-94
2024/04/07 08:13:24;;;;;;;14.43;2.50;;;9.70;99.90;;;;;;4948463;29;20031;-95
2024/04/07 08:15:49;;;;;;;6.57;1.80;;;9.70;99.90;;;;;;4946644;29;20059;-95
2024/04/07 08:18:15;;;;;;;12.10;1.80;;;9.80;99.90;;;;;;4945110;29;20031;-94
2024/04/07 08:20:43;;;;;;;6.78;1.10;;;9.80;99.90;;;;;;4934240;29;20036;-94
2024/04/07 08:23:15;;;;;;;8.95;1.65;;;10.00;99.90;;;;;;4936753;29;20016;-95
2024/04/07 08:25:42;;;;;;;6.22;0.95;;;10.10;99.90;;;;;;4934522;29;20019;-95
2024/04/07 08:28:08;;;;;;;7.47;1.00;;;10.10;99.90;;;;;;4963739;28;20091;-96
2024/04/07 08:30:33;;;;;;;7.88;0.98;;;10.00;99.90;;;;;;4931819;29;20031;-94
2024/04/07 08:33:00;;;;;;;7.88;1.15;;;10.10;99.90;;;;;;4937776;29;20127;-94
2024/04/07 08:35:26;;;;;;;11.10;1.38;;;10.00;99.90;;;;;;4964588;29;20032;-94
2024/04/07 08:37:52;;;;;;;5.82;1.33;;;9.90;99.90;;;;;;4948235;29;20040;-93
2024/04/07 08:40:18;;;;;;;9.20;1.55;;;9.90;99.90;;;;;;4966871;29;20039;-95
2024/04/07 08:42:47;;;;;;;9.02;1.10;;;9.80;99.90;;;;;;4935629;29;20043;-95
2024/04/07 08:45:20;;;;;;;10.90;1.25;;;9.80;99.90;;;;;;4935604;29;20030;-93
2024/04/07 08:47:50;;;;;;;5.93;1.50;;;9.80;99.90;;;;;;4921699;29;20051;-93
2024/04/07 08:50:17;;;;;;;7.73;1.57;;;9.80;99.90;;;;;;4962057;28;20032;-93
2024/04/07 08:52:44;;;;;;;8.65;1.77;;;9.90;99.90;;;;;;4953265;28;20023;-93
2024/04/07 08:55:10;;;;;;;6.85;1.88;;;9.90;99.90;;;;;;4950147;29;20119;-93
2024/04/07 08:57:40;;;;;;;10.80;1.60;;;10.00;99.90;;;;;;4952609;29;20115;-93
2024/04/07 09:00:08;;;;;;;12.38;1.95;;;10.00;99.90;;;;;;4920759;29;20118;-93
2024/04/07 09:02:36;;;;;;;13.15;2.83;;;10.20;99.90;;;;;;4953783;28;20090;-93
2024/04/07 09:05:27;;;;;;;11.98;2.28;;;10.20;99.90;;;;;;4915203;29;20048;-95
2024/04/07 09:08:01;;;;;;;16.08;3.13;;;10.30;99.90;;;;;;4920156;29;20045;-96
2024/04/07 09:10:32;;;;;;;17.10;2.33;;;10.40;99.90;;;;;;4937266;29;20036;-95
2024/04/07 09:12:59;;;;;;;11.77;1.45;;;10.60;99.90;;;;;;4923668;29;20023;-95
2024/04/07 09:15:28;;;;;;;17.80;3.05;;;10.70;99.90;;;;;;4952911;28;20035;-94
2024/04/07 09:17:54;;;;;;;20.33;3.20;;;10.90;99.90;;;;;;4953203;29;20023;-94
2024/04/07 09:20:23;;;;;;;19.25;2.30;;;10.90;99.90;;;;;;4962375;28;20258;-95
2024/04/07 09:22:51;;;;;;;15.02;2.17;;;11.10;99.90;;;;;;4953206;29;20553;-94
2024/04/07 09:25:36;;;;;;;;;;;;;;;;;;;;;
2024/04/07 09:28:05;;;;;;;22.98;3.50;;;11.30;99.90;;;;;;4928979;29;20054;-94
2024/04/07 09:30:31;;;;;;;25.90;3.33;;;11.50;99.90;;;;;;4946205;28;20024;-94
2024/04/07 09:32:57;;;;;;;18.23;2.47;;;11.60;99.90;;;;;;4950449;29;20031;-94
2024/04/07 09:35:24;;;;;;;18.85;2.55;;;11.60;99.90;;;;;;4920198;29;20397;-95
2024/04/07 09:37:50;;;;;;;18.13;2.10;;;11.70;99.90;;;;;;4916553;29;20091;-95
2024/04/07 09:40:15;;;;;;;7.95;1.67;;;11.80;99.90;;;;;;4951641;29;20066;-94
2024/04/07 09:42:43;;;;;;;23.70;2.53;;;11.80;99.90;;;;;;4951955;28;20015;-93
2024/04/07 09:45:10;;;;;;;18.10;2.90;;;11.80;99.90;;;;;;4948219;28;20042;-94
2024/04/07 09:47:37;;;;;;;17.15;2.80;;;11.90;99.90;;;;;;4920389;29;20047;-92
2024/04/07 09:50:32;;;;;;;13.27;1.75;;;12.00;99.90;;;;;;4947047;29;20118;-94
2024/04/07 09:53:05;;;;;;;19.67;3.80;;;12.20;99.90;;;;;;4928905;29;20020;-93
2024/04/07 09:55:38;;;;;;;16.33;2.45;;;12.40;99.90;;;;;;4951507;29;20028;-92
2024/04/07 09:58:06;;;;;;;13.65;2.22;;;12.50;99.90;;;;;;4950732;29;20038;-94
2024/04/07 10:00:33;;;;;;;10.52;1.77;;;12.70;99.90;;;;;;4932921;29;20023;-93
2024/04/07 10:03:02;;;;;;;9.30;1.45;;;12.80;99.90;;;;;;4951692;29;20051;-92
2024/04/07 10:05:28;;;;;;;14.57;2.28;;;12.90;99.90;;;;;;4932621;29;20047;-92
2024/04/07 10:07:56;;;;;;;10.90;1.98;;;12.80;99.90;;;;;;4929443;29;20035;-94
2024/04/07 10:10:25;;;;;;;9.63;1.55;;;12.80;99.90;;;;;;4923152;29;20036;-92
2024/04/07 10:12:52;;;;;;;12.25;1.92;;;12.60;99.90;;;;;;4923192;29;20028;-92
2024/04/07 10:15:26;;;;;;;13.40;2.17;;;12.70;99.90;;;;;;4930365;29;20051;-92
2024/04/07 10:17:52;;;;;;;11.27;2.00;;;12.80;99.90;;;;;;4953499;29;20106;-92
2024/04/07 10:20:19;;;;;;;10.20;2.15;;;13.00;99.90;;;;;;4924161;29;20044;-92
2024/04/07 10:22:45;;;;;;;5.93;1.60;;;13.10;99.90;;;;;;4925383;29;20506;-93
2024/04/07 10:25:10;;;;;;;11.60;2.45;;;13.20;99.90;;;;;;4952118;29;20098;-94
2024/04/07 10:27:44;;;;;;;7.82;1.45;;;13.30;99.90;;;;;;4926634;29;20434;-93
2024/04/07 10:30:15;;;;;;;7.43;1.30;;;13.30;99.90;;;;;;4926070;29;20028;-92
2024/04/07 10:32:43;;;;;;;6.57;1.48;;;13.40;99.90;;;;;;4935276;29;20031;-93
2024/04/07 10:35:10;;;;;;;11.93;1.67;;;13.50;99.90;;;;;;4931442;29;20119;-93
2024/04/07 10:37:39;;;;;;;9.73;2.10;;;13.60;99.90;;;;;;4929675;29;20020;-92
2024/04/07 10:40:13;;;;;;;5.35;1.38;;;13.70;99.90;;;;;;4925189;29;20066;-93
2024/04/07 10:42:42;;;;;;;6.30;1.67;;;13.70;99.90;;;;;;4945562;29;20024;-93
2024/04/07 10:45:11;;;;;;;5.30;1.30;;;13.70;99.90;;;;;;4940064;29;20044;-92
2024/04/07 10:47:39;;;;;;;11.80;1.55;;;13.70;99.90;;;;;;4939565;29;20073;-93
2024/04/07 10:50:09;;;;;;;11.85;2.00;;;13.80;99.90;;;;;;4940328;29;20063;-92
2024/04/07 10:52:41;;;;;;;10.70;1.85;;;13.90;99.50;;;;;;4950260;29;20059;-92
2024/04/07 10:55:10;;;;;;;7.03;1.48;;;13.90;99.00;;;;;;4936056;29;20038;-92
2024/04/07 10:57:36;;;;;;;6.75;0.98;;;14.00;98.00;;;;;;4932258;29;20117;-91
2024/04/07 11:00:03;;;;;;;5.30;1.17;;;14.20;97.50;;;;;;4924456;29;20477;-93
2024/04/07 11:02:31;;;;;;;10.45;2.38;;;14.40;97.30;;;;;;4931468;29;20027;-92
2024/04/07 11:05:00;;;;;;;17.67;2.55;;;14.40;96.10;;;;;;4926407;28;20047;-93
2024/04/07 11:07:29;;;;;;;8.80;2.42;;;14.50;96.80;;;;;;4929255;29;20031;-91
2024/04/07 11:10:03;;;;;;;14.07;2.25;;;14.60;97.10;;;;;;4930454;29;20177;-92
2024/04/07 11:12:29;;;;;;;13.32;2.38;;;14.60;96.90;;;;;;4912372;29;20019;-93
2024/04/07 11:14:55;;;;;;;6.82;1.40;;;14.50;96.70;;;;;;4929627;29;20051;-92
2024/04/07 11:17:22;;;;;;;18.77;2.40;;;14.60;96.80;;;;;;4930152;29;20039;-92
2024/04/07 11:19:56;;;;;;;11.23;2.50;;;14.80;97.00;;;;;;4925356;29;20118;-92
2024/04/07 11:22:23;;;;;;;14.05;2.80;;;14.90;97.00;;;;;;4929350;29;20024;-93
2024/04/07 11:24:51;;;;;;;6.70;1.65;;;15.00;96.60;;;;;;4928326;29;20034;-92
2024/04/07 11:27:17;;;;;;;9.52;2.78;;;15.10;95.90;;;;;;4946637;29;20046;-94
2024/04/07 11:29:50;;;;;;;8.68;2.00;;;15.20;95.40;;;;;;4935369;29;20091;-93
2024/04/07 11:32:17;;;;;;;7.57;1.50;;;15.30;94.70;;;;;;4933926;29;20047;-93
2024/04/07 11:34:50;;;;;;;12.07;2.35;;;15.30;94.20;;;;;;4934357;29;20027;-92
2024/04/07 11:37:17;;;;;;;9.32;1.85;;;15.50;94.00;;;;;;4930474;29;20058;-93
2024/04/07 11:39:50;;;;;;;7.43;1.75;;;15.70;94.10;;;;;;4948066;29;20026;-94
2024/04/07 11:42:19;;;;;;;9.40;1.90;;;15.80;92.90;;;;;;4936214;29;20035;-93
2024/04/07 11:44:48;;;;;;;9.73;1.88;;;15.90;91.90;;;;;;4927683;29;20047;-95
2024/04/07 11:47:15;;;;;;;8.23;1.58;;;15.80;92.00;;;;;;4939691;29;20027;-91
2024/04/07 11:49:41;;;;;;;11.00;2.05;;;15.70;91.80;;;;;;4935498;29;20035;-94
2024/04/07 11:52:07;;;;;;;12.38;2.55;;;15.60;92.10;;;;;;4930716;29;20442;-93
2024/04/07 11:54:37;;;;;;;10.75;2.05;;;15.60;92.50;;;;;;4941891;29;20016;-93
2024/04/07 11:57:04;;;;;;;7.03;1.58;;;15.60;92.70;;;;;;4965120;29;20047;-92
2024/04/07 11:59:30;;;;;;;9.10;2.03;;;15.80;93.40;;;;;;4961507;29;20023;-92
2024/04/07 12:01:57;;;;;;;7.40;1.85;;;15.90;92.70;;;;;;4943889;29;20031;-94
2024/04/07 12:04:26;;;;;;;10.52;1.83;;;15.80;92.80;;;;;;4917146;29;20027;-93
2024/04/07 12:06:58;;;;;;;7.70;1.70;;;15.70;92.80;;;;;;4928507;29;20051;-93
2024/04/07 12:09:29;;;;;;;11.25;2.13;;;15.50;92.70;;;;;;4932049;29;20414;-93
2024/04/07 12:12:00;;;;;;;13.65;2.15;;;15.40;93.10;;;;;;4955260;29;20035;-94
2024/04/07 12:14:26;;;;;;;7.65;1.60;;;15.20;93.10;;;;;;4930264;29;20032;-94
2024/04/07 12:16:53;;;;;;;7.63;1.35;;;15.00;93.70;;;;;;4941332;29;20052;-94
2024/04/07 12:19:19;;;;;;;10.32;1.73;;;14.80;94.40;;;;;;4925163;29;20039;-95
2024/04/07 12:21:44;;;;;;;14.18;1.90;;;14.70;95.30;;;;;;4925413;29;20035;-94
2024/04/07 12:24:16;;;;;;;15.52;2.05;;;14.70;96.50;;;;;;4928368;29;20027;-94
2024/04/07 12:26:45;;;;;;;14.98;1.85;;;14.70;97.50;;;;;;4924866;29;20056;-94
2024/04/07 12:29:10;;;;;;;13.02;1.83;;;14.60;98.10;;;;;;4924106;29;20560;-91
2024/04/07 12:31:36;;;;;;;13.40;2.88;;;14.40;99.10;;;;;;4924608;29;20042;-90
2024/04/07 12:34:02;;;;;;;12.05;1.88;;;14.20;99.90;;;;;;4923319;29;20032;-90
2024/04/07 12:36:27;;;;;;;7.93;1.88;;;14.00;99.90;;;;;;4923585;29;20031;-92
2024/04/07 12:38:53;;;;;;;9.35;1.52;;;14.00;99.90;;;;;;4923791;29;20023;-92
2024/04/07 12:41:19;;;;;;;11.75;1.83;;;14.00;99.90;;;;;;4922197;29;20066;-93
2024/04/07 12:43:45;;;;;;;8.77;1.42;;;14.00;99.90;;;;;;4939688;29;20031;-91
2024/04/07 12:46:11;;;;;;;6.63;1.40;;;13.90;99.90;;;;;;4923393;29;20111;-91
2024/04/07 12:48:38;;;;;;;6.38;1.48;;;13.70;99.90;;;;;;4923574;29;20167;-91
2024/04/07 12:51:04;;;;;;;9.77;1.27;;;13.60;99.90;;;;;;4924757;29;20059;-92